createdAt,value
2023-03-07T00:00:45.220Z,3.58
2023-03-07T00:01:45.272Z,3.58
2023-03-07T00:02:45.339Z,3.58
2023-03-07T00:03:45.202Z,3.59
2023-03-07T00:04:45.175Z,3.61
2023-03-07T00:05:45.150Z,3.61
2023-03-07T00:06:45.159Z,3.63
2023-03-07T00:07:45.139Z,3.66
2023-03-07T00:08:45.116Z,3.67
2023-03-07T00:09:45.140Z,3.68
2023-03-07T00:10:45.100Z,3.71
2023-03-07T00:11:45.081Z,3.73
2023-03-07T00:12:45.118Z,3.73
2023-03-07T00:13:45.056Z,3.73
2023-03-07T00:14:45.051Z,3.74
2023-03-07T00:15:45.114Z,3.74
2023-03-07T00:16:45.063Z,3.76
2023-03-07T00:17:45.019Z,3.77
2023-03-07T00:18:45.086Z,3.77
2023-03-07T00:19:45.004Z,3.74
2023-03-07T00:20:45.036Z,3.74
2023-03-07T00:21:44.982Z,3.73
2023-03-07T00:22:44.948Z,3.71
2023-03-07T00:23:44.952Z,3.70
2023-03-07T00:24:44.926Z,3.70
2023-03-07T00:25:44.976Z,3.70
2023-03-07T00:26:44.940Z,3.71
2023-03-07T00:27:44.892Z,3.68
2023-03-07T00:28:44.870Z,3.66
2023-03-07T00:29:44.839Z,3.64
2023-03-07T00:30:44.844Z,3.66
2023-03-07T00:31:45.084Z,3.68
2023-03-07T00:32:44.824Z,3.68
2023-03-07T00:33:44.791Z,3.66
2023-03-07T00:34:44.856Z,3.66
2023-03-07T00:35:44.799Z,3.66
2023-03-07T00:36:44.767Z,3.61
2023-03-07T00:37:44.844Z,3.58
2023-03-07T00:38:44.726Z,3.59
2023-03-07T00:39:44.704Z,3.58
2023-03-07T00:40:44.704Z,3.58
2023-03-07T00:41:44.693Z,3.56
2023-03-07T00:42:44.687Z,3.55
2023-03-07T00:43:44.665Z,3.58
2023-03-07T00:44:44.665Z,3.53
2023-03-07T00:45:44.655Z,3.50
2023-03-07T00:46:44.619Z,3.49
2023-03-07T00:47:44.636Z,3.49
2023-03-07T00:48:44.603Z,3.48
2023-03-07T00:49:44.603Z,3.46
2023-03-07T00:50:44.563Z,3.46
2023-03-07T00:51:44.568Z,3.45
2023-03-07T00:52:44.577Z,3.45
2023-03-07T00:53:44.561Z,3.46
2023-03-07T00:54:44.543Z,3.48
2023-03-07T00:55:44.557Z,3.50
2023-03-07T00:56:44.506Z,3.53
2023-03-07T00:57:44.487Z,3.53
2023-03-07T00:58:44.498Z,3.52
2023-03-07T00:59:44.457Z,3.55
2023-03-07T01:00:44.483Z,3.55
2023-03-07T01:01:44.435Z,3.55
2023-03-07T01:02:44.423Z,3.56
2023-03-07T01:03:44.410Z,3.55
2023-03-07T01:04:44.397Z,3.55
2023-03-07T01:05:44.376Z,3.53
2023-03-07T01:06:44.368Z,3.55
2023-03-07T01:07:44.377Z,3.52
2023-03-07T01:08:44.368Z,3.53
2023-03-07T01:09:44.329Z,3.52
2023-03-07T01:10:44.336Z,3.55
2023-03-07T01:11:44.310Z,3.55
2023-03-07T01:12:44.304Z,3.55
2023-03-07T01:13:44.318Z,3.55
2023-03-07T01:14:44.266Z,3.53
2023-03-07T01:15:44.257Z,3.53
2023-03-07T01:16:44.296Z,3.48
2023-03-07T01:17:44.236Z,3.46
2023-03-07T01:18:44.246Z,3.40
2023-03-07T01:19:44.207Z,3.37
2023-03-07T01:20:44.202Z,3.36
2023-03-07T01:21:44.219Z,3.34
2023-03-07T01:22:44.181Z,3.34
2023-03-07T01:23:44.178Z,3.33
2023-03-07T01:24:44.147Z,3.33
2023-03-07T01:25:44.140Z,3.33
2023-03-07T01:26:44.125Z,3.34
2023-03-07T01:27:44.103Z,3.34
2023-03-07T01:28:44.091Z,3.36
2023-03-07T01:29:44.095Z,3.34
2023-03-07T01:30:44.076Z,3.36
2023-03-07T01:31:44.135Z,3.36
2023-03-07T01:32:44.102Z,3.37
2023-03-07T01:33:44.027Z,3.33
2023-03-07T01:34:44.026Z,3.31
2023-03-07T01:35:44.068Z,3.31
2023-03-07T01:36:44.051Z,3.29
2023-03-07T01:37:43.970Z,3.29
2023-03-07T01:38:43.970Z,3.27
2023-03-07T01:39:43.966Z,3.27
2023-03-07T01:40:43.951Z,3.27
2023-03-07T01:41:43.915Z,3.27
2023-03-07T01:42:43.906Z,3.27
2023-03-07T01:43:43.915Z,3.30
2023-03-07T01:44:43.925Z,3.33
2023-03-07T01:45:43.912Z,3.33
2023-03-07T01:46:43.867Z,3.34
2023-03-07T01:47:43.848Z,3.36
2023-03-07T01:48:43.844Z,3.36
2023-03-07T01:49:43.875Z,3.36
2023-03-07T01:50:43.815Z,3.36
2023-03-07T01:51:43.803Z,3.34
2023-03-07T01:52:43.777Z,3.34
2023-03-07T01:53:43.763Z,3.36
2023-03-07T01:54:43.782Z,3.34
2023-03-07T01:55:43.743Z,3.33
2023-03-07T01:56:43.740Z,3.33
2023-03-07T01:57:43.719Z,3.31
2023-03-07T01:58:43.710Z,3.27
2023-03-07T01:59:43.713Z,3.26
2023-03-07T02:00:43.682Z,3.26
2023-03-07T02:01:43.684Z,3.26
2023-03-07T02:02:43.666Z,3.27
2023-03-07T02:03:43.640Z,3.30
2023-03-07T02:04:43.650Z,3.31
2023-03-07T02:05:43.637Z,3.33
2023-03-07T02:06:43.610Z,3.34
2023-03-07T02:07:43.579Z,3.36
2023-03-07T02:08:43.581Z,3.36
2023-03-07T02:09:43.585Z,3.37
2023-03-07T02:10:43.562Z,3.37
2023-03-07T02:11:43.568Z,3.37
2023-03-07T02:12:43.529Z,3.36
2023-03-07T02:15:03.210Z,3.40
2023-03-07T02:15:54.085Z,3.41
2023-03-07T02:16:54.038Z,3.45
2023-03-07T02:17:54.032Z,3.43
2023-03-07T02:18:54.011Z,3.43
2023-03-07T02:19:54.011Z,3.41
2023-03-07T02:20:53.981Z,3.41
2023-03-07T02:21:53.982Z,3.41
2023-03-07T02:22:53.957Z,3.45
2023-03-07T02:23:53.963Z,3.43
2023-03-07T02:24:53.958Z,3.45
2023-03-07T02:25:53.920Z,3.43
2023-03-07T02:26:53.902Z,3.40
2023-03-07T02:27:53.898Z,3.40
2023-03-07T02:28:53.882Z,3.41
2023-03-07T02:29:53.891Z,3.41
2023-03-07T02:30:53.869Z,3.40
2023-03-07T02:31:53.858Z,3.37
2023-03-07T02:32:53.831Z,3.37
2023-03-07T02:33:53.827Z,3.41
2023-03-07T02:34:53.838Z,3.43
2023-03-07T02:35:53.820Z,3.48
2023-03-07T02:36:53.786Z,3.50
2023-03-07T02:37:53.801Z,3.56
2023-03-07T02:38:53.766Z,3.58
2023-03-07T02:39:53.776Z,3.64
2023-03-07T02:40:53.744Z,3.68
2023-03-07T02:41:53.733Z,3.74
2023-03-07T02:42:53.706Z,3.78
2023-03-07T02:43:53.716Z,3.82
2023-03-07T02:44:53.696Z,3.86
2023-03-07T02:45:53.700Z,3.91
2023-03-07T02:46:53.665Z,3.95
2023-03-07T02:47:53.656Z,4.00
2023-03-07T02:48:53.633Z,4.03
2023-03-07T02:49:53.658Z,4.04
2023-03-07T02:50:53.617Z,4.09
2023-03-07T02:51:53.593Z,4.10
2023-03-07T02:52:53.586Z,4.10
2023-03-07T02:53:53.586Z,4.13
2023-03-07T02:54:53.575Z,4.13
2023-03-07T02:55:53.546Z,4.16
2023-03-07T02:56:53.530Z,4.16
2023-03-07T02:57:53.529Z,4.16
2023-03-07T02:58:53.507Z,4.16
2023-03-07T02:59:53.515Z,4.18
2023-03-07T03:00:53.473Z,4.14
2023-03-07T03:01:53.498Z,4.20
2023-03-07T03:02:53.457Z,4.20
2023-03-07T03:03:53.448Z,4.20
2023-03-07T03:04:53.523Z,4.21
2023-03-07T03:05:53.448Z,4.21
2023-03-07T03:06:53.436Z,4.21
2023-03-07T03:07:53.393Z,4.22
2023-03-07T03:08:53.372Z,4.24
2023-03-07T03:09:53.370Z,4.25
2023-03-07T03:10:53.369Z,4.25
2023-03-07T03:11:53.350Z,4.25
2023-03-07T03:12:53.349Z,4.27
2023-03-07T03:13:53.328Z,4.28
2023-03-07T03:14:53.299Z,4.30
2023-03-07T03:15:53.325Z,4.30
2023-03-07T03:16:53.271Z,4.31
2023-03-07T03:17:53.269Z,4.30
2023-03-07T03:18:53.244Z,4.30
2023-03-07T03:19:53.240Z,4.31
2023-03-07T03:20:53.242Z,4.32
2023-03-07T03:21:53.220Z,4.34
2023-03-07T03:22:53.207Z,4.34
2023-03-07T03:23:53.193Z,4.36
2023-03-07T03:24:53.168Z,4.36
2023-03-07T03:25:53.201Z,4.36
2023-03-07T03:26:53.150Z,4.39
2023-03-07T03:27:53.139Z,4.39
2023-03-07T03:28:53.117Z,4.38
2023-03-07T03:29:53.095Z,4.38
2023-03-07T03:30:53.109Z,4.40
2023-03-07T03:31:53.088Z,4.42
2023-03-07T03:32:53.071Z,4.42
2023-03-07T03:33:53.063Z,4.43
2023-03-07T03:34:53.043Z,4.45
2023-03-07T03:35:53.089Z,4.45
2023-03-07T03:36:53.018Z,4.45
2023-03-07T03:37:53.016Z,4.43
2023-03-07T03:38:52.987Z,4.40
2023-03-07T03:39:52.979Z,4.39
2023-03-07T03:40:52.975Z,4.39
2023-03-07T03:41:52.951Z,4.40
2023-03-07T03:42:52.953Z,4.42
2023-03-07T03:43:52.941Z,4.42
2023-03-07T03:44:52.908Z,4.38
2023-03-07T03:45:52.923Z,4.32
2023-03-07T03:46:52.925Z,4.30
2023-03-07T03:47:52.890Z,4.28
2023-03-07T03:48:52.863Z,4.24
2023-03-07T03:49:52.848Z,4.25
2023-03-07T03:50:52.846Z,4.27
2023-03-07T03:51:52.835Z,4.30
2023-03-07T03:52:52.823Z,4.32
2023-03-07T03:53:52.802Z,4.34
2023-03-07T03:54:52.776Z,4.34
2023-03-07T03:55:52.790Z,4.32
2023-03-07T03:56:52.755Z,4.36
2023-03-07T03:57:52.747Z,4.39
2023-03-07T03:58:52.734Z,4.39
2023-03-07T03:59:52.718Z,4.40
2023-03-07T04:00:52.715Z,4.42
2023-03-07T04:01:52.878Z,4.43
2023-03-07T04:02:52.798Z,4.46
2023-03-07T04:03:52.668Z,4.46
2023-03-07T04:04:52.646Z,4.49
2023-03-07T04:05:52.637Z,4.50
2023-03-07T04:06:52.646Z,4.53
2023-03-07T04:07:52.620Z,4.57
2023-03-07T04:08:52.588Z,4.56
2023-03-07T04:09:52.585Z,4.58
2023-03-07T04:10:52.584Z,4.58
2023-03-07T04:11:52.565Z,4.58
2023-03-07T04:12:52.555Z,4.58
2023-03-07T04:13:52.534Z,4.60
2023-03-07T04:14:52.523Z,4.61
2023-03-07T04:15:52.503Z,4.61
2023-03-07T04:16:52.537Z,4.61
2023-03-07T04:17:52.482Z,4.66
2023-03-07T04:18:52.473Z,4.66
2023-03-07T04:19:52.457Z,4.68
2023-03-07T04:20:52.451Z,4.66
2023-03-07T04:21:52.457Z,4.64
2023-03-07T04:22:52.423Z,4.66
2023-03-07T04:23:52.413Z,4.64
2023-03-07T04:24:52.387Z,4.63
2023-03-07T04:25:52.419Z,4.66
2023-03-07T04:26:52.384Z,4.66
2023-03-07T04:27:52.356Z,4.67
2023-03-07T04:28:52.330Z,4.64
2023-03-07T04:29:52.322Z,4.61
2023-03-07T04:30:52.293Z,4.61
2023-03-07T04:31:52.329Z,4.60
2023-03-07T04:32:52.291Z,4.63
2023-03-07T04:33:52.276Z,4.63
2023-03-07T04:34:52.251Z,4.64
2023-03-07T04:35:52.273Z,4.66
2023-03-07T04:36:52.250Z,4.64
2023-03-07T04:37:52.221Z,4.64
2023-03-07T04:38:52.205Z,4.64
2023-03-07T04:39:52.193Z,4.66
2023-03-07T04:40:52.181Z,4.67
2023-03-07T04:41:52.192Z,4.68
2023-03-07T04:42:52.158Z,4.67
2023-03-07T04:43:52.151Z,4.64
2023-03-07T04:44:52.129Z,4.66
2023-03-07T04:45:52.119Z,4.63
2023-03-07T04:46:52.130Z,4.64
2023-03-07T04:47:52.080Z,4.64
2023-03-07T04:48:52.082Z,4.61
2023-03-07T04:49:52.061Z,4.63
2023-03-07T04:50:52.049Z,4.61
2023-03-07T04:51:52.052Z,4.63
2023-03-07T04:52:52.031Z,4.64
2023-03-07T04:53:52.022Z,4.64
2023-03-07T04:54:51.995Z,4.66
2023-03-07T04:55:51.981Z,4.66
2023-03-07T04:56:51.980Z,4.67
2023-03-07T04:57:51.990Z,4.67
2023-03-07T04:58:51.941Z,4.67
2023-03-07T04:59:51.931Z,4.67
2023-03-07T05:00:51.921Z,4.68
2023-03-07T05:01:51.923Z,4.70
2023-03-07T05:02:51.901Z,4.68
2023-03-07T05:03:51.888Z,4.70
2023-03-07T05:04:51.863Z,4.71
2023-03-07T05:05:51.858Z,4.68
2023-03-07T05:06:51.851Z,4.67
2023-03-07T05:07:51.831Z,4.66
2023-03-07T05:08:59.133Z,4.63
2023-03-07T05:09:51.808Z,4.63
2023-03-07T05:10:51.798Z,4.61
2023-03-07T05:11:53.601Z,4.63
2023-03-07T05:12:51.774Z,4.64
2023-03-07T05:13:51.768Z,4.67
2023-03-07T05:14:51.743Z,4.66
2023-03-07T05:15:51.790Z,4.67
2023-03-07T05:16:51.732Z,4.70
2023-03-07T05:17:51.695Z,4.68
2023-03-07T05:18:51.688Z,4.70
2023-03-07T05:19:51.672Z,4.67
2023-03-07T05:20:51.718Z,4.66
2023-03-07T05:21:51.661Z,4.63
2023-03-07T05:22:51.643Z,4.64
2023-03-07T05:23:51.624Z,4.66
2023-03-07T05:24:51.605Z,4.67
2023-03-07T05:25:51.600Z,4.66
2023-03-07T05:26:51.602Z,4.63
2023-03-07T05:27:51.582Z,4.66
2023-03-07T05:28:51.582Z,4.67
2023-03-07T05:29:51.548Z,4.66
2023-03-07T05:30:51.581Z,4.66
2023-03-07T05:31:51.532Z,4.64
2023-03-07T05:32:51.522Z,4.66
2023-03-07T05:33:51.494Z,4.67
2023-03-07T05:34:51.485Z,4.66
2023-03-07T05:35:51.475Z,4.68
2023-03-07T05:36:51.458Z,4.68
2023-03-07T05:37:51.451Z,4.67
2023-03-07T05:38:51.432Z,4.71
2023-03-07T05:39:51.412Z,4.74
2023-03-07T05:40:51.410Z,4.71
2023-03-07T05:41:51.391Z,4.75
2023-03-07T05:42:51.416Z,4.76
2023-03-07T05:43:51.351Z,4.78
2023-03-07T05:44:51.347Z,4.78
2023-03-07T05:45:51.423Z,4.79
2023-03-07T05:46:51.328Z,4.82
2023-03-07T05:47:51.324Z,4.82
2023-03-07T05:48:51.293Z,4.83
2023-03-07T05:49:51.285Z,4.84
2023-03-07T05:50:51.273Z,4.83
2023-03-07T05:51:51.253Z,4.84
2023-03-07T05:52:51.274Z,4.83
2023-03-07T05:53:51.259Z,4.83
2023-03-07T05:54:51.493Z,4.83
2023-03-07T05:55:51.206Z,4.82
2023-03-07T05:56:51.195Z,4.83
2023-03-07T05:57:51.195Z,4.79
2023-03-07T05:58:51.174Z,5.19
2023-03-07T05:59:51.155Z,5.70
2023-03-07T06:00:51.136Z,6.01
2023-03-07T06:01:51.127Z,6.20
2023-03-07T06:02:51.208Z,6.34
2023-03-07T06:03:51.132Z,6.82
2023-03-07T06:04:51.090Z,7.21
2023-03-07T06:05:51.193Z,7.55
2023-03-07T06:06:51.077Z,7.91
2023-03-07T06:07:51.063Z,8.23
2023-03-07T06:08:51.032Z,8.44
2023-03-07T06:09:51.013Z,8.64
2023-03-07T06:10:51.011Z,8.78
2023-03-07T06:11:51.000Z,8.82
2023-03-07T06:12:51.021Z,8.54
2023-03-07T06:13:50.984Z,8.17
2023-03-07T06:14:50.952Z,7.80
2023-03-07T06:15:51.049Z,7.53
2023-03-07T06:16:50.922Z,7.21
2023-03-07T06:17:50.926Z,6.93
2023-03-07T06:18:50.915Z,6.74
2023-03-07T06:19:50.883Z,6.50
2023-03-07T06:20:50.886Z,6.28
2023-03-07T06:21:50.867Z,6.12
2023-03-07T06:22:50.864Z,5.98
2023-03-07T06:23:50.822Z,5.87
2023-03-07T06:24:50.813Z,5.76
2023-03-07T06:25:50.802Z,5.65
2023-03-07T06:26:50.784Z,5.59
2023-03-07T06:27:50.794Z,5.51
2023-03-07T06:28:50.787Z,5.43
2023-03-07T06:29:50.744Z,5.33
2023-03-07T06:30:50.879Z,5.25
2023-03-07T06:31:50.723Z,5.19
2023-03-07T06:32:50.732Z,5.16
2023-03-07T06:33:50.682Z,5.13
2023-03-07T06:34:50.705Z,5.12
2023-03-07T06:35:50.681Z,5.08
2023-03-07T06:36:50.677Z,5.07
2023-03-07T06:37:50.661Z,5.04
2023-03-07T06:38:50.723Z,5.02
2023-03-07T06:39:50.623Z,4.98
2023-03-07T06:40:50.603Z,4.94
2023-03-07T06:41:50.592Z,4.86
2023-03-07T06:42:50.602Z,4.79
2023-03-07T06:43:50.563Z,4.79
2023-03-07T06:44:50.955Z,4.79
2023-03-07T06:45:50.564Z,4.78
2023-03-07T06:46:50.535Z,4.78
2023-03-07T06:47:50.559Z,4.83
2023-03-07T06:48:50.503Z,4.82
2023-03-07T06:49:50.486Z,4.84
2023-03-07T06:50:50.474Z,4.87
2023-03-07T06:51:50.462Z,4.86
2023-03-07T06:52:50.463Z,4.87
2023-03-07T06:53:50.432Z,4.92
2023-03-07T06:54:50.432Z,4.94
2023-03-07T06:55:50.405Z,4.94
2023-03-07T06:56:50.404Z,4.95
2023-03-07T06:57:50.395Z,4.94
2023-03-07T06:58:50.378Z,4.95
2023-03-07T06:59:50.344Z,4.95
2023-03-07T07:00:50.343Z,4.95
2023-03-07T07:01:50.439Z,4.95
2023-03-07T07:02:50.442Z,4.97
2023-03-07T07:03:50.295Z,4.98
2023-03-07T07:04:50.282Z,5.01
2023-03-07T07:05:50.240Z,5.01
2023-03-07T07:06:50.253Z,5.02
2023-03-07T07:07:50.255Z,5.01
2023-03-07T07:08:50.238Z,5.02
2023-03-07T07:09:50.211Z,5.02
2023-03-07T07:10:50.215Z,5.02
2023-03-07T07:11:50.195Z,5.02
2023-03-07T07:12:50.192Z,5.02
2023-03-07T07:13:50.162Z,5.04
2023-03-07T07:14:50.152Z,5.04
2023-03-07T07:15:50.131Z,5.05
2023-03-07T07:16:50.197Z,5.08
2023-03-07T07:17:50.121Z,5.10
2023-03-07T07:18:50.103Z,5.12
2023-03-07T07:19:50.082Z,5.13
2023-03-07T07:20:50.071Z,5.15
2023-03-07T07:21:50.051Z,5.16
2023-03-07T07:22:50.060Z,5.16
2023-03-07T07:23:50.036Z,5.18
2023-03-07T07:24:50.049Z,5.19
2023-03-07T07:25:50.004Z,5.19
2023-03-07T07:26:50.001Z,5.19
2023-03-07T07:27:50.003Z,5.18
2023-03-07T07:28:49.964Z,5.18
2023-03-07T07:29:49.961Z,5.15
2023-03-07T07:30:49.962Z,5.13
2023-03-07T07:31:50.172Z,5.13
2023-03-07T07:32:50.050Z,5.13
2023-03-07T07:33:49.909Z,5.15
2023-03-07T07:34:49.985Z,5.19
2023-03-07T07:35:49.910Z,5.19
2023-03-07T07:36:49.883Z,5.22
2023-03-07T07:37:49.871Z,5.19
2023-03-07T07:38:49.841Z,5.16
2023-03-07T07:39:49.852Z,5.16
2023-03-07T07:40:49.840Z,5.18
2023-03-07T07:41:49.807Z,5.19
2023-03-07T07:42:49.822Z,5.16
2023-03-07T07:43:49.773Z,5.16
2023-03-07T07:44:49.785Z,5.15
2023-03-07T07:45:49.785Z,5.19
2023-03-07T07:46:49.734Z,5.22
2023-03-07T07:47:49.775Z,5.22
2023-03-07T07:48:49.726Z,5.25
2023-03-07T07:49:49.696Z,5.26
2023-03-07T07:50:49.696Z,5.28
2023-03-07T07:51:49.676Z,5.29
2023-03-07T07:52:49.675Z,5.33
2023-03-07T07:53:49.657Z,5.34
2023-03-07T07:54:49.647Z,5.34
2023-03-07T07:55:49.628Z,5.34
2023-03-07T07:56:49.613Z,5.33
2023-03-07T07:57:49.607Z,5.34
2023-03-07T07:58:49.607Z,5.26
2023-03-07T07:59:49.571Z,5.26
2023-03-07T08:00:49.569Z,5.26
2023-03-07T08:01:49.536Z,5.28
2023-03-07T08:02:49.560Z,5.28
2023-03-07T08:03:49.571Z,5.31
2023-03-07T08:04:49.511Z,5.33
2023-03-07T08:05:49.509Z,5.37
2023-03-07T08:06:49.480Z,5.38
2023-03-07T08:07:49.477Z,5.38
2023-03-07T08:08:49.448Z,5.38
2023-03-07T08:09:49.446Z,5.40
2023-03-07T08:10:49.457Z,5.41
2023-03-07T08:11:49.421Z,5.41
2023-03-07T08:12:49.431Z,5.40
2023-03-07T08:13:49.387Z,5.43
2023-03-07T08:14:49.385Z,5.44
2023-03-07T08:15:49.406Z,5.46
2023-03-07T08:16:49.360Z,5.47
2023-03-07T08:17:49.337Z,5.47
2023-03-07T08:18:49.390Z,5.51
2023-03-07T08:19:49.318Z,5.51
2023-03-07T08:20:49.317Z,5.44
2023-03-07T08:21:49.279Z,5.47
2023-03-07T08:22:49.289Z,5.47
2023-03-07T08:23:49.290Z,5.47
2023-03-07T08:24:49.264Z,5.49
2023-03-07T08:25:49.232Z,5.46
2023-03-07T08:26:49.226Z,5.43
2023-03-07T08:27:49.215Z,5.41
2023-03-07T08:28:49.221Z,5.43
2023-03-07T08:29:49.187Z,5.41
2023-03-07T08:30:49.219Z,5.43
2023-03-07T08:31:49.156Z,5.46
2023-03-07T08:32:49.167Z,5.49
2023-03-07T08:33:49.142Z,5.52
2023-03-07T08:34:49.149Z,5.56
2023-03-07T08:35:49.163Z,5.59
2023-03-07T08:36:49.115Z,5.59
2023-03-07T08:37:49.086Z,5.58
2023-03-07T08:38:49.090Z,5.61
2023-03-07T08:39:49.058Z,5.61
2023-03-07T08:40:49.064Z,5.62
2023-03-07T08:41:49.024Z,5.62
2023-03-07T08:42:49.020Z,5.64
2023-03-07T08:43:49.016Z,5.67
2023-03-07T08:44:49.000Z,5.70
2023-03-07T08:45:48.970Z,5.70
2023-03-07T08:46:48.967Z,5.72
2023-03-07T08:47:48.947Z,5.70
2023-03-07T08:48:48.955Z,5.70
2023-03-07T08:49:48.943Z,5.74
2023-03-07T08:50:48.915Z,5.73
2023-03-07T08:51:48.913Z,5.73
2023-03-07T08:52:48.885Z,5.74
2023-03-07T08:53:48.892Z,5.72
2023-03-07T08:54:48.881Z,5.73
2023-03-07T08:55:48.830Z,5.74
2023-03-07T08:56:48.821Z,5.76
2023-03-07T08:57:48.816Z,5.77
2023-03-07T08:58:48.820Z,5.77
2023-03-07T08:59:48.792Z,5.77
2023-03-07T09:00:48.770Z,5.74
2023-03-07T09:01:48.779Z,5.74
2023-03-07T09:02:48.749Z,5.76
2023-03-07T09:03:48.761Z,5.76
2023-03-07T09:04:48.794Z,5.76
2023-03-07T09:05:48.791Z,5.77
2023-03-07T09:06:48.703Z,5.81
2023-03-07T09:07:48.680Z,5.81
2023-03-07T09:08:48.717Z,5.79
2023-03-07T09:09:48.639Z,5.81
2023-03-07T09:10:48.682Z,5.83
2023-03-07T09:11:48.609Z,5.84
2023-03-07T09:12:48.610Z,5.83
2023-03-07T09:13:52.281Z,5.80
2023-03-07T09:14:48.580Z,5.83
2023-03-07T09:15:48.573Z,5.80
2023-03-07T09:16:48.562Z,5.83
2023-03-07T09:17:48.538Z,5.87
2023-03-07T09:18:48.550Z,5.91
2023-03-07T09:19:48.492Z,5.92
2023-03-07T09:20:48.502Z,5.94
2023-03-07T09:21:48.490Z,5.88
2023-03-07T09:22:48.480Z,5.81
2023-03-07T09:23:48.481Z,5.77
2023-03-07T09:24:48.468Z,5.79
2023-03-07T09:25:48.455Z,5.79
2023-03-07T09:26:48.422Z,5.79
2023-03-07T09:27:49.930Z,5.81
2023-03-07T09:28:48.418Z,5.83
2023-03-07T09:29:48.382Z,5.83
2023-03-07T09:30:48.385Z,5.84
2023-03-07T09:31:48.419Z,5.87
2023-03-07T09:32:48.352Z,5.87
2023-03-07T09:33:48.362Z,5.88
2023-03-07T09:34:48.338Z,5.90
2023-03-07T09:35:48.375Z,5.84
2023-03-07T09:36:48.292Z,5.84
2023-03-07T09:37:48.273Z,5.88
2023-03-07T09:38:48.283Z,5.90
2023-03-07T09:39:48.254Z,5.92
2023-03-07T09:40:48.327Z,5.94
2023-03-07T09:41:48.230Z,5.95
2023-03-07T09:42:48.239Z,5.97
2023-03-07T09:43:48.236Z,5.94
2023-03-07T09:44:48.232Z,5.90
2023-03-07T09:45:48.225Z,5.92
2023-03-07T09:46:48.176Z,5.95
2023-03-07T09:47:48.184Z,5.95
2023-03-07T09:48:48.164Z,5.95
2023-03-07T09:49:48.165Z,5.90
2023-03-07T09:50:48.132Z,5.88
2023-03-07T09:51:48.104Z,5.91
2023-03-07T09:52:48.071Z,5.88
2023-03-07T09:53:48.083Z,5.90
2023-03-07T09:54:48.041Z,5.90
2023-03-07T09:55:48.036Z,5.91
2023-03-07T09:56:48.013Z,5.92
2023-03-07T09:57:48.014Z,5.95
2023-03-07T09:58:48.004Z,5.98
2023-03-07T09:59:47.985Z,6.01
2023-03-07T10:00:47.974Z,6.01
2023-03-07T10:01:47.956Z,5.99
2023-03-07T10:02:47.936Z,6.01
2023-03-07T10:03:48.119Z,6.01
2023-03-07T10:04:47.925Z,6.05
2023-03-07T10:05:47.915Z,6.06
2023-03-07T10:06:47.892Z,6.09
2023-03-07T10:07:47.885Z,6.12
2023-03-07T10:08:47.878Z,6.10
2023-03-07T10:09:47.855Z,6.12
2023-03-07T10:10:47.845Z,6.12
2023-03-07T10:11:47.918Z,6.12
2023-03-07T10:12:47.805Z,6.13
2023-03-07T10:13:47.817Z,6.10
2023-03-07T10:14:47.784Z,6.10
2023-03-07T10:15:47.842Z,6.13
2023-03-07T10:16:47.851Z,6.16
2023-03-07T10:17:47.764Z,6.19
2023-03-07T10:18:47.753Z,6.22
2023-03-07T10:19:47.724Z,6.25
2023-03-07T10:20:47.710Z,6.29
2023-03-07T10:21:47.705Z,6.28
2023-03-07T10:22:47.686Z,6.29
2023-03-07T10:23:47.694Z,6.28
2023-03-07T10:24:47.656Z,6.28
2023-03-07T10:25:47.643Z,6.29
2023-03-07T10:26:47.630Z,6.29
2023-03-07T10:27:47.634Z,6.26
2023-03-07T10:28:47.613Z,6.26
2023-03-07T10:29:47.594Z,6.29
2023-03-07T10:30:47.573Z,6.31
2023-03-07T10:31:47.587Z,6.32
2023-03-07T10:32:47.676Z,6.32
2023-03-07T10:33:47.564Z,6.34
2023-03-07T10:34:47.519Z,6.35
2023-03-07T10:35:47.531Z,6.34
2023-03-07T10:36:49.010Z,6.36
2023-03-07T10:37:47.481Z,6.41
2023-03-07T10:38:47.480Z,6.41
2023-03-07T10:39:47.474Z,6.46
2023-03-07T10:40:47.446Z,6.50
2023-03-07T10:41:47.459Z,6.53
2023-03-07T10:42:47.406Z,6.57
2023-03-07T10:43:47.395Z,6.60
2023-03-07T10:44:47.409Z,6.65
2023-03-07T10:45:47.402Z,6.70
2023-03-07T10:46:55.929Z,6.72
2023-03-07T10:47:48.352Z,6.75
2023-03-07T10:48:47.340Z,6.82
2023-03-07T10:49:47.416Z,6.85
2023-03-07T10:50:47.306Z,6.87
2023-03-07T10:51:47.293Z,6.90
2023-03-07T10:52:47.259Z,6.96
2023-03-07T10:53:47.238Z,6.96
2023-03-07T10:54:47.257Z,7.00
2023-03-07T10:55:47.248Z,7.00
2023-03-07T10:56:47.215Z,7.04
2023-03-07T10:57:47.206Z,7.05
2023-03-07T10:58:47.196Z,7.08
2023-03-07T10:59:47.201Z,7.13
2023-03-07T11:00:47.167Z,7.19
2023-03-07T11:01:47.195Z,7.22
2023-03-07T11:02:47.138Z,7.21
2023-03-07T11:03:53.562Z,7.23
2023-03-07T11:04:48.184Z,7.25
2023-03-07T11:05:47.097Z,7.22
2023-03-07T11:06:47.074Z,7.25
2023-03-07T11:07:47.072Z,7.22
2023-03-07T11:08:47.052Z,7.21
2023-03-07T11:09:47.057Z,7.21
2023-03-07T11:10:47.026Z,7.14
2023-03-07T11:11:47.014Z,7.14
2023-03-07T11:12:47.004Z,7.18
2023-03-07T11:13:46.999Z,7.18
2023-03-07T11:14:47.013Z,7.18
2023-03-07T11:15:47.033Z,7.21
2023-03-07T11:16:47.025Z,7.19
2023-03-07T11:17:46.934Z,7.13
2023-03-07T11:18:46.923Z,7.13
2023-03-07T11:19:46.943Z,7.10
2023-03-07T11:20:46.955Z,7.11
2023-03-07T11:21:46.873Z,7.10
2023-03-07T11:22:46.912Z,7.13
2023-03-07T11:23:46.892Z,7.13
2023-03-07T11:24:46.835Z,7.14
2023-03-07T11:25:46.988Z,7.15
2023-03-07T11:26:46.912Z,7.18
2023-03-07T11:27:46.831Z,7.21
2023-03-07T11:28:46.863Z,7.23
2023-03-07T11:29:47.082Z,7.25
2023-03-07T11:30:47.502Z,7.26
2023-03-07T11:31:46.743Z,7.28
2023-03-07T11:32:46.811Z,7.28
2023-03-07T11:33:58.575Z,7.23
2023-03-07T11:34:47.714Z,7.23
2023-03-07T11:35:46.696Z,7.19
2023-03-07T11:36:46.671Z,7.18
2023-03-07T11:37:46.665Z,7.11
2023-03-07T11:38:46.644Z,7.11
2023-03-07T11:39:46.654Z,7.13
2023-03-07T11:40:46.624Z,7.10
2023-03-07T11:41:46.603Z,7.11
2023-03-07T11:42:46.600Z,7.11
2023-03-07T11:43:46.575Z,7.08
2023-03-07T11:44:46.589Z,7.08
2023-03-07T11:45:46.595Z,7.04
2023-03-07T11:46:46.593Z,7.07
2023-03-07T11:47:46.535Z,7.07
2023-03-07T11:48:46.517Z,7.08
2023-03-07T11:49:46.526Z,7.13
2023-03-07T11:50:46.486Z,7.14
2023-03-07T11:51:46.476Z,7.19
2023-03-07T11:52:46.476Z,7.22
2023-03-07T11:53:46.454Z,7.25
2023-03-07T11:54:46.455Z,7.25
2023-03-07T11:55:46.416Z,7.23
2023-03-07T11:56:46.406Z,7.22
2023-03-07T11:57:46.398Z,7.22
2023-03-07T11:58:46.408Z,7.22
2023-03-07T11:59:46.387Z,7.25
2023-03-07T12:00:46.358Z,7.26
2023-03-07T12:01:46.350Z,7.28
2023-03-07T12:02:46.375Z,7.28
2023-03-07T12:03:46.320Z,7.29
2023-03-07T12:04:46.310Z,7.32
2023-03-07T12:05:46.349Z,7.32
2023-03-07T12:06:46.278Z,7.36
2023-03-07T12:07:46.272Z,7.33
2023-03-07T12:08:46.268Z,7.39
2023-03-07T12:09:46.251Z,7.39
2023-03-07T12:10:46.241Z,7.43
2023-03-07T12:11:46.207Z,7.46
2023-03-07T12:12:46.202Z,7.47
2023-03-07T12:13:46.188Z,7.51
2023-03-07T12:14:46.170Z,7.55
2023-03-07T12:15:46.187Z,7.56
2023-03-07T12:16:46.140Z,7.56
2023-03-07T12:17:46.141Z,7.56
2023-03-07T12:18:46.121Z,7.58
2023-03-07T12:19:46.101Z,7.58
2023-03-07T12:20:46.113Z,7.55
2023-03-07T12:21:46.071Z,7.51
2023-03-07T12:22:46.050Z,7.47
2023-03-07T12:23:46.053Z,7.46
2023-03-07T12:24:46.059Z,7.44
2023-03-07T12:25:46.051Z,7.43
2023-03-07T12:26:46.008Z,7.41
2023-03-07T12:27:46.003Z,7.39
2023-03-07T12:28:45.980Z,7.37
2023-03-07T12:29:45.970Z,7.33
2023-03-07T12:30:45.972Z,7.31
2023-03-07T12:31:46.065Z,7.29
2023-03-07T12:32:46.041Z,7.28
2023-03-07T12:33:45.933Z,7.26
2023-03-07T12:34:45.904Z,7.25
2023-03-07T12:35:45.952Z,7.23
2023-03-07T12:36:45.882Z,7.23
2023-03-07T12:37:45.865Z,7.22
2023-03-07T12:38:45.853Z,7.21
2023-03-07T12:39:45.984Z,7.19
2023-03-07T12:40:45.845Z,7.22
2023-03-07T12:41:45.815Z,7.22
2023-03-07T12:42:45.793Z,7.23
2023-03-07T12:43:45.792Z,7.26
2023-03-07T12:44:45.863Z,7.26
2023-03-07T12:45:45.953Z,7.28
2023-03-07T12:46:45.743Z,7.29
2023-03-07T12:47:45.713Z,7.32
2023-03-07T12:48:45.704Z,7.32
2023-03-07T12:49:49.982Z,7.32
2023-03-07T12:50:45.708Z,7.36
2023-03-07T12:51:45.693Z,7.40
2023-03-07T12:52:45.686Z,7.40
2023-03-07T12:53:45.675Z,7.43
2023-03-07T12:54:45.636Z,7.44
2023-03-07T12:55:45.662Z,7.43
2023-03-07T12:56:45.607Z,7.41
2023-03-07T12:57:45.601Z,7.39
2023-03-07T12:58:45.593Z,7.39
2023-03-07T12:59:45.574Z,7.41
2023-03-07T13:00:45.638Z,7.40
2023-03-07T13:01:45.544Z,7.39
2023-03-07T13:02:45.522Z,7.41
2023-03-07T13:03:45.551Z,7.39
2023-03-07T13:04:45.507Z,7.41
2023-03-07T13:05:45.500Z,7.40
2023-03-07T13:06:45.467Z,7.39
2023-03-07T13:07:45.462Z,7.37
2023-03-07T13:08:45.430Z,7.37
2023-03-07T13:09:45.428Z,7.40
2023-03-07T13:10:45.434Z,7.39
2023-03-07T13:11:45.416Z,7.43
2023-03-07T13:12:45.385Z,7.43
2023-03-07T13:13:45.371Z,7.41
2023-03-07T13:14:45.337Z,7.44
2023-03-07T13:15:45.347Z,7.46
2023-03-07T13:16:45.411Z,7.46
2023-03-07T13:17:45.325Z,7.43
2023-03-07T13:18:45.297Z,7.43
2023-03-07T13:19:45.285Z,7.43